Time;durP1;ratioP1;P1;durP2;ratioP2;P2;SDS_P1;SDS_P2;PMS_P1;PMS_P2;Temp;Humidity;BMP_temperature;BMP_pressure;BME280_temperature;BME280_humidity;BME280_pressure;Samples;Min_cycle;Max_cycle;Signal;HPM_P1;HPM_P2
2022/06/22 00:01:22;;;;;;;13.57;8.05;;;20.20;99.90;;;;;;5228462;28;20462;-75
2022/06/22 00:03:57;;;;;;;13.13;8.20;;;20.20;99.90;;;;;;5229112;28;20063;-75
2022/06/22 00:06:46;;;;;;;15.60;8.90;;;19.90;99.90;;;;;;5228753;28;20021;-76
2022/06/22 00:09:25;;;;;;;16.83;8.55;;;19.70;99.90;;;;;;5228915;28;20354;-75
2022/06/22 00:11:57;;;;;;;18.53;8.83;;;19.80;99.90;;;;;;5228860;28;20078;-76
2022/06/22 00:14:43;;;;;;;14.90;7.78;;;19.90;99.90;;;;;;5227550;28;20041;-75
2022/06/22 00:17:21;;;;;;;14.82;7.72;;;20.00;99.90;;;;;;5228838;28;20025;-76
2022/06/22 00:20:18;;;;;;;14.15;7.70;;;20.00;99.90;;;;;;5228774;28;20507;-76
2022/06/22 00:22:56;;;;;;;12.45;7.90;;;19.80;99.90;;;;;;5217860;28;20045;-75
2022/06/22 00:25:38;;;;;;;14.93;7.97;;;19.70;99.90;;;;;;5227619;28;20025;-75
2022/06/22 00:28:33;;;;;;;10.65;7.97;;;19.80;99.90;;;;;;5226940;28;20043;-76
2022/06/22 00:31:39;;;;;;;12.70;8.35;;;19.60;99.90;;;;;;5228739;28;20163;-76
2022/06/22 00:34:10;;;;;;;12.50;8.15;;;19.60;99.90;;;;;;5196176;28;20530;-75
2022/06/22 00:36:47;;;;;;;11.43;7.10;;;19.70;99.90;;;;;;5228170;28;20029;-75
2022/06/22 00:39:20;;;;;;;11.88;8.02;;;19.60;99.90;;;;;;5228307;28;20051;-76
2022/06/22 00:42:18;;;;;;;10.80;7.63;;;19.40;99.90;;;;;;5228231;28;20411;-76
2022/06/22 00:45:01;;;;;;;15.38;8.52;;;19.90;99.90;;;;;;5227732;28;20045;-76
2022/06/22 00:47:37;;;;;;;15.50;8.82;;;19.80;99.90;;;;;;5228053;28;20072;-75
2022/06/22 00:50:13;;;;;;;12.10;8.30;;;19.90;99.90;;;;;;5226711;28;20515;-75
2022/06/22 00:53:18;;;;;;;13.20;7.63;;;19.90;99.90;;;;;;5228220;28;20033;-76
2022/06/22 00:56:14;;;;;;;13.75;7.75;;;19.70;99.90;;;;;;5227972;28;20057;-75
2022/06/22 00:58:59;;;;;;;14.55;8.32;;;19.70;99.90;;;;;;5226737;28;20322;-76
2022/06/22 01:01:49;;;;;;;11.95;8.45;;;19.70;99.90;;;;;;5227175;28;20021;-76
2022/06/22 01:04:39;;;;;;;13.30;8.45;;;19.50;99.90;;;;;;5228015;28;20109;-75
2022/06/22 01:07:36;;;;;;;16.23;8.98;;;19.70;99.90;;;;;;5227899;28;20059;-76
2022/06/22 01:10:18;;;;;;;13.40;9.20;;;19.40;99.90;;;;;;5227909;28;20052;-76
2022/06/22 01:12:58;;;;;;;15.43;9.63;;;19.20;99.90;;;;;;5226585;28;20035;-75
2022/06/22 01:15:36;;;;;;;14.52;8.95;;;19.30;99.90;;;;;;5227887;28;20032;-76
2022/06/22 01:18:19;;;;;;;14.10;8.77;;;19.30;99.90;;;;;;5227748;28;20031;-75
2022/06/22 01:21:19;;;;;;;15.05;8.55;;;19.70;99.90;;;;;;5226534;28;20060;-75
2022/06/22 01:23:58;;;;;;;16.10;9.25;;;19.80;99.90;;;;;;5205645;28;20041;-75
2022/06/22 01:26:35;;;;;;;14.90;9.07;;;19.90;99.90;;;;;;5227659;28;20350;-76
2022/06/22 01:29:14;;;;;;;16.67;9.75;;;19.90;99.90;;;;;;5227532;28;20099;-75
2022/06/22 01:31:54;;;;;;;17.15;8.77;;;19.80;99.90;;;;;;5227766;28;20049;-75
2022/06/22 01:34:25;;;;;;;;;;;20.10;99.90;;;;;;5227022;28;20116;-76
2022/06/22 01:37:05;;;;;;;17.75;10.45;;;19.90;99.90;;;;;;5227456;28;20014;-75
2022/06/22 01:39:35;;;;;;;;;;;19.70;99.90;;;;;;5228010;28;20063;-76
2022/06/22 01:42:19;;;;;;;16.00;10.40;;;19.90;99.90;;;;;;5227498;28;19936;-76
2022/06/22 01:45:15;;;;;;;15.95;10.68;;;19.90;99.90;;;;;;5227166;28;20366;-75
2022/06/22 01:47:52;;;;;;;18.17;10.63;;;19.70;99.90;;;;;;5227168;28;20429;-76
2022/06/22 01:50:43;;;;;;;16.45;9.90;;;19.70;99.90;;;;;;5227501;28;20021;-75
2022/06/22 01:53:55;;;;;;;16.00;9.70;;;19.80;99.90;;;;;;5227288;28;20040;-76
2022/06/22 01:56:29;;;;;;;17.77;9.55;;;19.60;99.90;;;;;;5163871;28;20501;-76
2022/06/22 01:59:18;;;;;;;12.68;9.40;;;19.50;99.90;;;;;;5218360;28;20084;-75
2022/06/22 02:02:16;;;;;;;16.00;9.27;;;19.50;99.90;;;;;;5226355;28;20342;-76
2022/06/22 02:05:12;;;;;;;12.93;9.50;;;19.30;99.90;;;;;;5227228;28;20113;-75
2022/06/22 02:07:53;;;;;;;13.38;9.27;;;19.30;99.90;;;;;;5227128;28;20362;-75
2022/06/22 02:10:34;;;;;;;18.58;10.38;;;19.10;99.90;;;;;;5227316;28;20021;-76
2022/06/22 02:13:30;;;;;;;15.95;9.60;;;18.90;99.90;;;;;;5227148;28;20035;-76
2022/06/22 02:16:18;;;;;;;15.85;10.43;;;19.20;99.90;;;;;;5225884;28;20084;-76
2022/06/22 02:19:06;;;;;;;15.18;9.35;;;19.10;99.90;;;;;;5227171;28;20032;-75
2022/06/22 02:21:57;;;;;;;14.02;9.60;;;19.10;99.90;;;;;;5227096;28;20032;-75
2022/06/22 02:24:39;;;;;;;19.63;9.55;;;19.30;99.90;;;;;;5228387;28;20029;-76
2022/06/22 02:27:18;;;;;;;13.20;9.43;;;19.20;99.90;;;;;;5231221;28;20029;-76
2022/06/22 02:29:52;;;;;;;15.20;10.27;;;19.20;99.90;;;;;;5231036;28;20025;-75
2022/06/22 02:32:30;;;;;;;22.10;11.07;;;19.10;99.90;;;;;;5230831;28;20036;-76
2022/06/22 02:35:02;;;;;;;17.70;9.13;;;19.40;99.90;;;;;;5229806;28;20025;-76
2022/06/22 02:37:37;;;;;;;15.82;10.60;;;19.40;99.90;;;;;;5230749;28;20028;-75
2022/06/22 02:40:15;;;;;;;18.60;10.15;;;19.20;99.90;;;;;;5230363;28;20075;-75
2022/06/22 02:45:44;;;;;;;18.88;10.95;;;19.00;99.90;;;;;;5206948;28;20041;-76
2022/06/22 02:48:28;;;;;;;17.60;11.27;;;19.10;99.90;;;;;;5230318;28;20259;-76
2022/06/22 02:51:24;;;;;;;13.75;11.05;;;19.20;99.90;;;;;;5230579;28;20108;-76
2022/06/22 02:53:58;;;;;;;15.73;10.98;;;19.20;99.90;;;;;;5229196;28;20463;-76
2022/06/22 02:56:37;;;;;;;15.15;11.65;;;19.10;99.90;;;;;;5230285;28;20408;-75
2022/06/22 02:59:10;;;;;;;20.05;12.13;;;19.10;99.90;;;;;;5230528;28;20028;-75
2022/06/22 03:01:41;;;;;;;17.40;13.02;;;19.20;99.90;;;;;;5230294;28;20024;-75
2022/06/22 03:04:15;;;;;;;15.65;10.65;;;19.10;99.90;;;;;;5230346;28;20029;-76
2022/06/22 03:06:49;;;;;;;15.93;11.80;;;19.10;99.90;;;;;;5230004;28;20037;-75
2022/06/22 03:09:23;;;;;;;19.38;11.38;;;19.30;99.90;;;;;;5228800;28;20361;-75
2022/06/22 03:11:58;;;;;;;16.13;11.80;;;19.20;99.90;;;;;;5228889;28;20469;-76
2022/06/22 03:14:28;;;;;;;17.98;11.63;;;19.10;99.90;;;;;;5230059;28;20036;-75
2022/06/22 03:17:04;;;;;;;14.05;9.98;;;19.20;99.90;;;;;;5229949;28;20029;-76
2022/06/22 03:19:51;;;;;;;19.67;10.73;;;19.20;99.90;;;;;;5228674;28;20124;-75
2022/06/22 03:22:32;;;;;;;17.42;10.55;;;19.20;99.90;;;;;;5230027;28;20464;-75
2022/06/22 03:25:26;;;;;;;15.23;10.00;;;19.30;99.90;;;;;;5228401;28;20116;-76
2022/06/22 03:28:09;;;;;;;16.77;10.50;;;19.30;99.90;;;;;;5229770;28;20095;-75
2022/06/22 03:30:48;;;;;;;17.45;9.73;;;19.30;99.90;;;;;;5229817;28;20027;-76
2022/06/22 03:33:31;;;;;;;13.43;9.85;;;19.50;99.90;;;;;;5228384;28;20078;-75
2022/06/22 03:36:12;;;;;;;16.10;10.13;;;19.60;99.90;;;;;;5227233;28;20419;-75
2022/06/22 03:39:15;;;;;;;13.23;8.93;;;19.50;99.90;;;;;;5229812;28;20060;-76
2022/06/22 03:41:55;;;;;;;17.15;9.90;;;19.50;99.90;;;;;;5226418;28;20051;-75
2022/06/22 03:44:33;;;;;;;14.95;10.20;;;19.80;99.90;;;;;;5229169;28;20029;-75
2022/06/22 03:47:28;;;;;;;21.75;10.15;;;19.90;99.90;;;;;;5228202;28;20068;-75
2022/06/22 03:50:21;;;;;;;16.23;10.07;;;19.80;99.90;;;;;;5229784;28;20103;-75
2022/06/22 03:53:19;;;;;;;15.77;10.00;;;19.90;99.90;;;;;;5229412;28;20377;-75
2022/06/22 03:55:57;;;;;;;12.55;9.10;;;20.00;99.90;;;;;;5229222;28;20033;-75
2022/06/22 03:58:28;;;;;;;11.63;9.23;;;20.20;99.90;;;;;;5229167;28;20112;-75
2022/06/22 04:01:02;;;;;;;12.85;10.20;;;20.10;99.90;;;;;;5227669;28;20100;-75
2022/06/22 04:03:33;;;;;;;13.45;9.13;;;20.50;99.90;;;;;;5229031;28;20040;-75
2022/06/22 04:06:05;;;;;;;13.23;8.85;;;20.50;99.90;;;;;;5229039;28;20080;-75
2022/06/22 04:08:39;;;;;;;15.60;8.27;;;20.50;99.90;;;;;;5228833;28;20037;-75
2022/06/22 04:11:24;;;;;;;13.43;9.15;;;20.60;99.90;;;;;;5228827;28;20087;-76
2022/06/22 04:14:04;;;;;;;12.48;8.50;;;20.50;99.90;;;;;;5229125;28;20048;-76
2022/06/22 04:16:38;;;;;;;14.90;9.88;;;20.60;99.90;;;;;;5228848;28;20099;-76
2022/06/22 04:19:12;;;;;;;14.07;10.18;;;20.60;99.90;;;;;;5228930;28;20021;-75
2022/06/22 04:21:48;;;;;;;11.07;9.50;;;20.60;99.90;;;;;;5228832;28;20357;-76
2022/06/22 04:24:34;;;;;;;13.57;9.00;;;20.60;99.90;;;;;;5228703;28;20024;-75
2022/06/22 04:27:07;;;;;;;18.10;9.10;;;20.80;99.90;;;;;;5227155;28;20456;-76
2022/06/22 04:29:53;;;;;;;14.65;9.18;;;20.80;99.90;;;;;;5227206;28;20124;-75
2022/06/22 04:32:49;;;;;;;15.73;9.13;;;20.70;99.90;;;;;;5228612;28;20075;-75
2022/06/22 04:35:38;;;;;;;14.73;9.52;;;20.70;99.90;;;;;;5228481;28;20472;-75
2022/06/22 04:38:09;;;;;;;15.85;9.20;;;21.00;99.90;;;;;;5228263;28;20025;-75
2022/06/22 04:40:58;;;;;;;13.85;8.55;;;21.30;99.90;;;;;;5228279;28;20027;-76
2022/06/22 04:43:29;;;;;;;14.40;8.30;;;21.40;99.90;;;;;;5228111;28;20021;-76
2022/06/22 04:46:00;;;;;;;11.15;8.00;;;21.50;99.90;;;;;;5228216;28;20061;-75
2022/06/22 04:48:46;;;;;;;13.27;8.18;;;21.50;99.90;;;;;;5227715;28;20514;-76
2022/06/22 04:51:22;;;;;;;11.38;6.93;;;21.70;99.90;;;;;;5228273;28;20461;-75
2022/06/22 04:54:23;;;;;;;13.18;6.78;;;22.10;99.90;;;;;;5227023;28;20035;-76
2022/06/22 04:56:57;;;;;;;13.63;5.78;;;23.10;99.90;;;;;;5228279;28;20028;-75
2022/06/22 04:59:29;;;;;;;13.50;4.00;;;23.20;99.90;;;;;;5226681;28;20368;-75
2022/06/22 05:02:03;;;;;;;8.73;3.65;;;23.80;99.90;;;;;;5228012;28;20033;-76
2022/06/22 05:04:48;;;;;;;14.38;3.70;;;24.00;99.90;;;;;;5226667;28;20028;-75
2022/06/22 05:07:34;;;;;;;8.88;3.60;;;24.20;99.90;;;;;;5227748;28;20037;-75
2022/06/22 05:10:23;;;;;;;11.43;4.05;;;24.20;99.90;;;;;;5227958;28;20075;-75
2022/06/22 05:13:05;;;;;;;14.57;4.07;;;24.20;99.90;;;;;;5227588;28;20024;-75
2022/06/22 05:15:39;;;;;;;11.85;3.90;;;24.60;99.90;;;;;;5226496;28;20040;-76
2022/06/22 05:18:19;;;;;;;14.35;3.85;;;24.50;99.90;;;;;;5227693;28;20025;-76
2022/06/22 05:20:59;;;;;;;14.05;3.72;;;24.70;99.90;;;;;;5227656;28;20017;-76
2022/06/22 05:23:32;;;;;;;10.00;3.53;;;24.60;99.90;;;;;;5227675;28;20436;-75
2022/06/22 05:26:08;;;;;;;10.15;3.58;;;24.70;99.90;;;;;;5227542;28;20032;-75
2022/06/22 05:28:48;;;;;;;8.73;3.58;;;24.70;99.90;;;;;;5226099;28;20419;-76
2022/06/22 05:31:29;;;;;;;13.68;3.67;;;24.70;99.90;;;;;;5227717;28;20080;-76
2022/06/22 05:34:08;;;;;;;8.55;3.53;;;24.80;99.90;;;;;;5226294;28;20036;-75
2022/06/22 05:36:45;;;;;;;11.30;3.88;;;24.80;99.90;;;;;;5227578;28;20024;-76
2022/06/22 05:39:16;;;;;;;8.35;3.70;;;24.80;99.90;;;;;;5227518;28;20025;-76
2022/06/22 05:41:48;;;;;;;11.18;3.92;;;24.80;99.90;;;;;;5226170;28;20439;-76
2022/06/22 05:44:21;;;;;;;17.63;4.00;;;24.70;99.90;;;;;;5227144;28;20025;-76
2022/06/22 05:46:55;;;;;;;8.95;3.50;;;24.80;99.90;;;;;;5227183;28;20076;-75
2022/06/22 05:49:45;;;;;;;16.55;3.80;;;24.80;99.90;;;;;;5227444;28;20027;-76
2022/06/22 05:52:34;;;;;;;7.72;3.67;;;25.10;99.90;;;;;;5227395;28;20025;-75
2022/06/22 05:55:32;;;;;;;9.10;3.85;;;25.20;99.90;;;;;;5227392;28;20164;-76
2022/06/22 05:58:10;;;;;;;11.75;3.80;;;25.10;99.90;;;;;;5226756;28;20044;-75
2022/06/22 06:00:48;;;;;;;13.98;4.10;;;25.00;99.90;;;;;;5230695;28;20047;-75
2022/06/22 06:03:29;;;;;;;10.00;4.32;;;25.00;99.90;;;;;;5231242;28;20060;-75
2022/06/22 06:06:24;;;;;;;14.18;3.70;;;25.00;99.90;;;;;;5230033;28;20515;-75
2022/06/22 06:09:01;;;;;;;15.25;3.40;;;25.30;99.90;;;;;;5229948;28;20099;-75
2022/06/22 06:11:40;;;;;;;10.70;3.67;;;25.20;99.90;;;;;;5231226;28;20029;-75
2022/06/22 06:14:41;;;;;;;17.58;3.55;;;24.70;99.90;;;;;;5231252;28;20079;-76
2022/06/22 06:17:28;;;;;;;11.68;3.40;;;24.70;99.90;;;;;;5223122;28;20052;-75
2022/06/22 06:20:00;;;;;;;8.10;3.03;;;25.10;99.90;;;;;;5231295;28;20033;-76
2022/06/22 06:22:31;;;;;;;12.63;3.40;;;25.50;99.90;;;;;;5229757;28;20044;-75
2022/06/22 06:28:07;;;;;;;13.00;3.30;;;25.30;99.90;;;;;;5230848;28;20121;-75
2022/06/22 06:30:49;;;;;;;8.80;3.10;;;25.30;99.90;;;;;;5230847;28;20404;-75
2022/06/22 06:33:22;;;;;;;13.15;3.60;;;25.40;99.90;;;;;;5229469;28;20024;-76
2022/06/22 06:36:02;;;;;;;13.10;3.35;;;25.40;99.90;;;;;;5230600;28;20035;-75
2022/06/22 06:39:08;;;;;;;9.40;3.15;;;25.30;99.90;;;;;;5230722;28;20096;-75
2022/06/22 06:42:03;;;;;;;11.77;3.95;;;25.60;99.90;;;;;;5220402;28;20090;-76
2022/06/22 06:44:42;;;;;;;10.23;3.35;;;25.70;99.90;;;;;;5229082;28;20149;-76
2022/06/22 06:47:15;;;;;;;;;;;25.80;99.90;;;;;;5230847;28;20377;-75
2022/06/22 06:50:08;;;;;;;9.90;3.10;;;25.60;99.90;;;;;;5229125;28;19912;-75
2022/06/22 06:53:01;;;;;;;9.23;2.92;;;25.60;99.90;;;;;;5230442;28;20060;-75
2022/06/22 06:55:47;;;;;;;21.77;3.63;;;25.30;99.90;;;;;;5230029;28;20025;-76
2022/06/22 06:58:35;;;;;;;14.32;3.88;;;25.50;99.90;;;;;;5230324;28;20053;-76
2022/06/22 07:01:15;;;;;;;11.53;3.10;;;25.60;99.90;;;;;;5230521;28;20404;-76
2022/06/22 07:03:47;;;;;;;12.25;2.90;;;25.80;99.90;;;;;;5230152;28;20416;-75
2022/06/22 07:06:18;;;;;;;10.77;3.28;;;25.60;99.90;;;;;;5230040;28;20049;-76
2022/06/22 07:09:14;;;;;;;16.30;3.78;;;25.60;99.90;;;;;;5230154;28;20079;-75
2022/06/22 07:11:51;;;;;;;12.02;3.28;;;25.60;99.90;;;;;;5229151;28;20029;-75
2022/06/22 07:14:28;;;;;;;7.65;3.20;;;26.10;99.90;;;;;;5230036;28;20812;-76
2022/06/22 07:17:04;;;;;;;18.70;3.65;;;25.80;99.90;;;;;;5229682;28;20492;-75
2022/06/22 07:19:40;;;;;;;8.38;2.70;;;25.90;99.90;;;;;;5228316;28;20119;-76
2022/06/22 07:22:27;;;;;;;11.80;3.22;;;25.70;99.90;;;;;;5228637;28;20025;-76
2022/06/22 07:25:24;;;;;;;12.50;3.22;;;25.70;99.90;;;;;;5228480;28;20029;-76
2022/06/22 07:28:04;;;;;;;14.95;3.38;;;25.90;99.90;;;;;;5229568;28;20493;-75
2022/06/22 07:30:40;;;;;;;10.75;3.15;;;26.20;99.90;;;;;;5229558;28;20020;-76
2022/06/22 07:33:32;;;;;;;13.20;3.80;;;26.00;99.90;;;;;;5229694;28;20056;-75
2022/06/22 07:36:16;;;;;;;11.48;3.45;;;26.00;99.90;;;;;;5229470;28;20028;-75
2022/06/22 07:38:50;;;;;;;8.43;3.08;;;25.90;99.90;;;;;;5229439;28;20029;-75
2022/06/22 07:41:25;;;;;;;9.23;3.00;;;26.20;99.90;;;;;;5228100;28;20029;-76
2022/06/22 07:44:04;;;;;;;12.70;2.85;;;26.10;99.90;;;;;;5229425;28;20033;-76
2022/06/22 07:46:41;;;;;;;14.20;2.72;;;26.20;99.90;;;;;;5227860;28;20084;-75
2022/06/22 07:49:39;;;;;;;8.75;2.60;;;26.30;99.90;;;;;;5227832;28;20484;-75
2022/06/22 07:52:16;;;;;;;10.70;2.95;;;26.50;99.90;;;;;;5229157;28;20021;-76
2022/06/22 07:55:19;;;;;;;9.45;2.47;;;26.80;99.90;;;;;;5228117;28;20028;-76
2022/06/22 07:58:06;;;;;;;10.68;3.03;;;26.40;99.90;;;;;;5227394;28;20041;-75
2022/06/22 08:00:41;;;;;;;10.18;2.40;;;26.40;99.90;;;;;;5228963;28;20075;-76
2022/06/22 08:03:27;;;;;;;9.52;2.47;;;26.50;99.90;;;;;;5227855;28;20536;-75
2022/06/22 08:06:03;;;;;;;11.95;2.35;;;26.70;99.90;;;;;;5227641;28;20028;-76
2022/06/22 08:08:46;;;;;;;6.47;2.25;;;27.00;99.90;;;;;;5228709;28;20073;-76
2022/06/22 08:11:34;;;;;;;6.95;2.40;;;26.70;99.90;;;;;;5227520;28;20357;-75
2022/06/22 08:14:24;;;;;;;12.02;2.85;;;26.30;99.90;;;;;;5227583;28;20488;-75
2022/06/22 08:16:58;;;;;;;9.90;2.17;;;26.80;99.90;;;;;;5227670;28;20024;-75
2022/06/22 08:19:31;;;;;;;10.75;2.30;;;26.90;99.90;;;;;;5228674;28;20131;-76
2022/06/22 08:22:06;;;;;;;11.57;2.10;;;26.70;99.90;;;;;;5226791;28;20108;-75
2022/06/22 08:24:41;;;;;;;8.85;3.03;;;27.10;99.90;;;;;;5228331;28;20027;-75
2022/06/22 08:27:21;;;;;;;10.13;2.83;;;26.90;99.90;;;;;;5228452;28;20044;-75
2022/06/22 08:29:52;;;;;;;;;;;27.10;99.90;;;;;;5228899;28;20024;-76
2022/06/22 08:32:35;;;;;;;12.90;2.50;;;26.70;99.90;;;;;;5228322;28;19912;-76
2022/06/22 08:35:29;;;;;;;10.07;2.30;;;26.90;99.90;;;;;;5227083;28;20488;-76
2022/06/22 08:38:25;;;;;;;13.52;2.60;;;27.10;99.90;;;;;;5227063;28;20025;-75
2022/06/22 08:41:21;;;;;;;8.85;2.35;;;27.10;99.90;;;;;;5228320;28;20503;-76
2022/06/22 08:44:02;;;;;;;10.35;2.33;;;27.30;99.90;;;;;;5228225;28;20415;-75
2022/06/22 08:46:49;;;;;;;14.68;2.60;;;27.30;99.90;;;;;;5226657;28;20119;-76
2022/06/22 08:49:32;;;;;;;13.68;2.35;;;27.80;99.90;;;;;;5227965;28;20033;-74
2022/06/22 08:52:27;;;;;;;10.10;2.75;;;27.30;99.90;;;;;;5227974;28;20416;-75
2022/06/22 08:55:24;;;;;;;11.60;2.80;;;27.00;99.90;;;;;;5228133;28;20095;-76
2022/06/22 08:58:37;;;;;;;8.98;2.20;;;27.30;99.90;;;;;;5223914;28;20385;-76
2022/06/22 09:01:17;;;;;;;16.30;2.72;;;27.50;99.90;;;;;;5227823;28;20021;-75
2022/06/22 09:04:25;;;;;;;7.38;2.20;;;27.30;99.90;;;;;;5227906;28;20021;-75
2022/06/22 09:07:01;;;;;;;10.30;2.60;;;28.00;99.90;;;;;;5227601;28;20424;-75
2022/06/22 09:09:59;;;;;;;11.50;2.22;;;28.20;99.90;;;;;;5226601;28;20033;-76
2022/06/22 09:12:39;;;;;;;8.48;2.55;;;27.50;99.90;;;;;;5227626;28;20029;-76
2022/06/22 09:15:28;;;;;;;9.32;2.60;;;27.80;99.90;;;;;;5227761;28;20033;-76
2022/06/22 09:18:37;;;;;;;10.55;2.60;;;28.00;99.90;;;;;;5227672;28;20036;-75
2022/06/22 09:21:21;;;;;;;10.75;2.70;;;27.50;99.90;;;;;;5227606;28;20056;-76
2022/06/22 09:24:02;;;;;;;7.20;2.25;;;27.70;99.90;;;;;;5227524;28;20049;-76
2022/06/22 09:27:03;;;;;;;14.20;2.83;;;28.30;99.90;;;;;;5227338;28;20053;-76
2022/06/22 09:29:45;;;;;;;9.70;2.40;;;28.20;99.90;;;;;;5227482;28;20029;-76
2022/06/22 09:33:10;;;;;;;13.20;2.55;;;28.10;99.90;;;;;;5226342;28;20032;-75
2022/06/22 09:36:05;;;;;;;11.45;2.65;;;28.00;99.90;;;;;;5163474;28;20022;-75
2022/06/22 09:38:57;;;;;;;10.45;2.83;;;28.20;99.90;;;;;;5226661;28;20033;-75
2022/06/22 09:42:07;;;;;;;12.95;2.50;;;26.90;99.90;;;;;;5227296;28;20029;-76
2022/06/22 09:45:15;;;;;;;8.27;2.45;;;28.00;99.90;;;;;;5225716;28;20025;-76
2022/06/22 09:48:06;;;;;;;10.60;2.47;;;28.10;99.90;;;;;;5208385;28;20045;-76
2022/06/22 09:50:37;;;;;;;8.55;2.60;;;28.30;99.90;;;;;;5227215;28;20026;-75
2022/06/22 09:53:33;;;;;;;7.72;2.70;;;28.40;99.90;;;;;;5227225;28;20484;-76
2022/06/22 09:56:25;;;;;;;11.13;2.75;;;28.10;99.90;;;;;;5227100;28;20037;-76
2022/06/22 09:59:07;;;;;;;8.80;2.63;;;28.40;99.90;;;;;;5227185;28;20411;-76
2022/06/22 10:02:06;;;;;;;11.73;2.92;;;28.00;99.90;;;;;;5227067;28;20024;-75
2022/06/22 10:05:01;;;;;;;8.88;2.95;;;28.10;99.90;;;;;;5227113;28;20036;-76
2022/06/22 10:07:57;;;;;;;13.95;2.92;;;28.50;99.90;;;;;;5225771;28;20488;-75
2022/06/22 10:10:48;;;;;;;14.70;3.05;;;28.00;99.90;;;;;;5225700;28;20078;-76
2022/06/22 10:13:42;;;;;;;11.45;3.10;;;27.90;99.90;;;;;;5226939;28;20021;-75
2022/06/22 10:16:50;;;;;;;12.18;3.10;;;27.70;99.90;;;;;;5227050;28;20052;-76
2022/06/22 10:20:08;;;;;;;14.60;3.47;;;28.30;99.90;;;;;;5224901;28;20033;-76
2022/06/22 10:23:15;;;;;;;10.85;3.50;;;28.90;99.90;;;;;;5163555;28;20050;-76
2022/06/22 10:26:14;;;;;;;10.38;2.85;;;28.60;99.90;;;;;;5226915;28;20032;-76
2022/06/22 10:29:00;;;;;;;14.73;3.13;;;29.30;99.90;;;;;;5226740;28;20183;-76
2022/06/22 10:31:55;;;;;;;9.02;2.67;;;29.10;99.90;;;;;;5226904;28;20354;-75
2022/06/22 10:34:44;;;;;;;10.20;2.70;;;29.00;99.90;;;;;;5226864;28;20025;-75
2022/06/22 10:37:27;;;;;;;8.45;2.97;;;28.40;99.90;;;;;;5226732;28;20021;-76
2022/06/22 10:45:08;;;;;;;7.70;2.70;;;29.10;99.90;;;;;;5226730;28;20099;-75
2022/06/22 10:46:23;;;;;;;5.55;2.22;;;29.40;99.90;;;;;;5228937;28;20048;-76
2022/06/22 10:49:31;;;;;;;13.50;2.85;;;28.80;99.90;;;;;;5230442;28;20128;-76
2022/06/22 10:52:26;;;;;;;9.67;2.80;;;29.80;99.90;;;;;;5230481;28;20025;-76
2022/06/22 10:55:54;;;;;;;11.18;2.53;;;29.40;99.90;;;;;;5230231;28;20056;-76
2022/06/22 10:58:57;;;;;;;11.03;2.73;;;29.10;99.90;;;;;;5166769;28;20426;-76
2022/06/22 11:01:40;;;;;;;12.80;2.55;;;29.60;99.90;;;;;;5230195;28;20052;-75
2022/06/22 11:04:32;;;;;;;10.05;2.80;;;29.80;99.90;;;;;;5230128;28;20074;-76
2022/06/22 11:07:37;;;;;;;10.02;2.42;;;28.60;99.90;;;;;;5230052;28;20108;-76
2022/06/22 11:10:41;;;;;;;11.77;2.35;;;29.80;99.90;;;;;;5230007;28;20427;-76
2022/06/22 11:13:21;;;;;;;14.35;2.30;;;29.30;99.90;;;;;;5229800;28;20025;-76
2022/06/22 11:16:19;;;;;;;12.13;2.55;;;29.70;99.90;;;;;;5229962;28;20025;-76
2022/06/22 11:19:08;;;;;;;12.38;2.92;;;29.40;99.90;;;;;;5229879;28;20025;-76
2022/06/22 11:22:22;;;;;;;5.97;2.50;;;28.30;99.90;;;;;;5228520;28;20063;-76
2022/06/22 11:25:06;;;;;;;6.93;3.05;;;29.80;99.90;;;;;;5195926;28;20036;-76
2022/06/22 11:31:17;;;;;;;9.45;2.63;;;29.60;99.90;;;;;;5229444;28;20472;-76
2022/06/22 11:33:48;;;;;;;10.82;2.97;;;30.10;99.90;;;;;;5229595;28;20031;-75
2022/06/22 11:36:28;;;;;;;17.15;2.97;;;28.40;99.90;;;;;;5229393;28;20104;-76
2022/06/22 11:39:17;;;;;;;10.23;3.17;;;29.70;99.90;;;;;;5229425;28;20457;-76
2022/06/22 11:42:09;;;;;;;10.32;2.67;;;30.10;99.90;;;;;;5229473;28;20412;-76
2022/06/22 11:47:56;;;;;;;11.20;2.75;;;30.40;99.90;;;;;;5229382;28;20091;-76
2022/06/22 11:50:53;;;;;;;10.70;2.50;;;29.80;99.90;;;;;;5229300;28;20457;-76
2022/06/22 11:53:54;;;;;;;10.85;3.38;;;29.90;99.90;;;;;;5229210;28;20086;-76
2022/06/22 11:56:47;;;;;;;11.55;3.13;;;30.50;99.90;;;;;;5227178;28;20021;-76
2022/06/22 11:59:48;;;;;;;11.27;2.92;;;30.20;99.90;;;;;;5227743;28;20527;-76
2022/06/22 12:02:57;;;;;;;10.43;2.47;;;30.60;99.90;;;;;;5228937;28;20348;-76
2022/06/22 12:05:43;;;;;;;;;;;30.30;99.90;;;;;;5218803;28;20097;-76
2022/06/22 12:08:48;;;;;;;9.90;2.70;;;29.60;99.90;;;;;;5227602;28;20024;-76
2022/06/22 12:11:34;;;;;;;10.85;2.83;;;29.90;99.90;;;;;;5227636;28;20024;-76
2022/06/22 12:17:44;;;;;;;14.38;2.97;;;30.50;99.90;;;;;;5229159;28;20385;-75
2022/06/22 12:20:44;;;;;;;8.27;2.58;;;30.00;99.90;;;;;;5228781;28;20369;-76
2022/06/22 12:23:42;;;;;;;15.38;3.33;;;30.50;99.90;;;;;;5227396;28;20029;-76
2022/06/22 12:26:24;;;;;;;9.05;2.70;;;30.60;99.90;;;;;;5227407;28;20351;-75
2022/06/22 12:29:13;;;;;;;11.95;2.70;;;31.00;99.90;;;;;;5228374;28;20568;-76
2022/06/22 12:31:57;;;;;;;12.68;3.15;;;30.70;99.90;;;;;;5228275;28;20021;-75
2022/06/22 12:34:41;;;;;;;6.55;2.30;;;30.40;99.90;;;;;;5228417;28;20563;-75
2022/06/22 12:37:22;;;;;;;9.20;2.88;;;30.40;99.90;;;;;;5228241;28;20021;-76
2022/06/22 12:39:58;;;;;;;12.70;3.75;;;30.90;99.90;;;;;;5227066;28;20071;-76
2022/06/22 12:42:47;;;;;;;13.52;2.65;;;30.20;99.90;;;;;;5228184;28;20025;-76
2022/06/22 12:45:48;;;;;;;12.48;3.65;;;29.20;99.90;;;;;;5227984;28;20136;-76
2022/06/22 12:48:40;;;;;;;14.07;4.72;;;28.70;99.90;;;;;;5228074;28;20043;-76
2022/06/22 12:51:26;;;;;;;22.10;6.60;;;28.80;99.90;;;;;;5227960;28;20025;-76
2022/06/22 12:54:07;;;;;;;17.42;5.63;;;29.10;99.90;;;;;;5226849;28;20036;-76
2022/06/22 12:57:05;;;;;;;10.70;3.55;;;29.60;99.90;;;;;;5227895;28;20484;-75
2022/06/22 12:59:48;;;;;;;16.63;3.22;;;29.00;99.90;;;;;;5228055;28;20041;-75
2022/06/22 13:02:27;;;;;;;11.30;3.00;;;29.60;99.90;;;;;;5227868;28;20445;-76
2022/06/22 13:05:05;;;;;;;10.18;3.35;;;29.20;99.90;;;;;;5227779;28;20465;-76
2022/06/22 13:07:43;;;;;;;13.43;3.10;;;29.30;99.90;;;;;;5226091;28;20093;-76
2022/06/22 13:10:17;;;;;;;10.18;2.85;;;29.10;99.90;;;;;;5227721;28;20135;-76
2022/06/22 13:13:10;;;;;;;10.55;3.13;;;29.00;99.90;;;;;;5227539;28;20047;-77
2022/06/22 13:16:04;;;;;;;8.98;2.67;;;29.70;99.90;;;;;;5196488;28;20048;-75
2022/06/22 13:18:46;;;;;;;8.27;2.75;;;29.90;99.90;;;;;;5227592;28;20029;-76
2022/06/22 13:21:40;;;;;;;10.48;3.15;;;29.90;99.90;;;;;;5226516;28;20064;-76
2022/06/22 13:24:27;;;;;;;11.63;3.30;;;30.50;99.90;;;;;;5226210;28;20028;-76
2022/06/22 13:27:23;;;;;;;11.27;3.97;;;29.80;99.90;;;;;;5227440;28;20086;-76
2022/06/22 13:30:07;;;;;;;13.25;4.25;;;30.30;99.90;;;;;;5227426;28;20111;-76
2022/06/22 13:32:39;;;;;;;13.60;3.83;;;30.50;99.90;;;;;;5227479;28;20032;-77
2022/06/22 13:35:22;;;;;;;11.52;3.00;;;30.40;99.90;;;;;;5227400;28;20029;-76
2022/06/22 13:38:22;;;;;;;7.45;2.75;;;30.20;99.90;;;;;;5227556;28;20369;-76
2022/06/22 13:41:12;;;;;;;15.18;3.35;;;29.80;99.90;;;;;;5224875;28;20496;-76
2022/06/22 13:44:15;;;;;;;9.35;3.08;;;30.00;99.90;;;;;;5227309;28;20029;-75
2022/06/22 13:46:56;;;;;;;6.22;2.95;;;29.90;99.90;;;;;;5227061;28;20076;-76
2022/06/22 13:49:47;;;;;;;12.55;3.30;;;29.60;99.90;;;;;;5227158;28;20064;-76
2022/06/22 13:52:19;;;;;;;9.20;3.10;;;29.20;99.90;;;;;;5227403;28;20077;-76
2022/06/22 13:55:09;;;;;;;9.07;3.45;;;29.40;99.90;;;;;;5227397;28;20025;-76
2022/06/22 13:57:49;;;;;;;10.43;3.88;;;29.40;99.90;;;;;;5227275;28;20494;-76
2022/06/22 14:00:32;;;;;;;10.98;4.57;;;29.20;99.90;;;;;;5227364;28;20024;-76
2022/06/22 14:03:24;;;;;;;9.02;4.47;;;29.50;99.90;;;;;;5227180;28;20053;-76
2022/06/22 14:06:00;;;;;;;20.65;6.72;;;29.90;99.90;;;;;;5227056;28;20445;-76
2022/06/22 14:08:48;;;;;;;13.57;4.90;;;30.80;99.90;;;;;;5225929;28;20037;-76
2022/06/22 14:12:02;;;;;;;16.60;5.93;;;30.40;99.90;;;;;;5227086;28;20159;-76
2022/06/22 14:14:47;;;;;;;17.73;7.60;;;30.80;99.90;;;;;;5179012;28;20041;-76
2022/06/22 14:17:33;;;;;;;18.45;7.10;;;30.30;99.90;;;;;;5227313;28;20101;-76
2022/06/22 14:20:27;;;;;;;17.40;7.50;;;30.10;99.90;;;;;;5226370;28;20128;-76
2022/06/22 14:23:05;;;;;;;16.35;6.22;;;30.50;99.90;;;;;;5230930;28;20009;-76
2022/06/22 14:25:43;;;;;;;16.40;6.05;;;30.20;99.90;;;;;;5231002;28;20033;-76
2022/06/22 14:28:45;;;;;;;19.63;6.28;;;29.50;99.90;;;;;;5230881;28;20487;-76
2022/06/22 14:31:29;;;;;;;14.90;6.43;;;30.10;99.90;;;;;;5231043;28;20107;-77